Sea Discovery — 5BGR3 — position and weather

sailwx.info

Track history (hours):
 
Tides and Currents Weather Stations Pressure Air Temp Water Temp Dewpoint Dewpoint Depression Visibility Wind Speed Wind Dir Waves Ship Positions

Sea Discovery

Last reported at 2018-Jun-17 04:50 UTC. Time now 2018-Jun-20 05:25 UTC.
Position N 36°59' E 004°54'.

Length 110 m; draft 8 m.

Type: Cargo ship. MMSI: 209185000.

Date/timePositionNaut miles runAvg speedWind from/ knotsBaromVisibWave heightAir tempDewpointWater temp
2018-Jun-17 04:50N 36°59' E 004°54'10211.7
2018-Jun-16 20:07N 36°58' E 002°46'111.3
2018-Jun-16 19:59N 36°58' E 002°44'511.2
2018-Jun-16 19:30N 36°57' E 002°38'611.0
2018-Jun-16 19:00N 36°56' E 002°31'611.2
2018-Jun-16 18:30N 36°55' E 002°24'611.6
2018-Jun-16 18:00N 36°55' E 002°17'612.0
2018-Jun-16 17:30N 36°53' E 002°09'912.4
2018-Jun-16 16:47N 36°52' E 001°58'2312.9
2018-Jun-16 15:00N 36°48' E 001°30'1512.4
2018-Jun-16 13:47N 36°46' E 001°11'512.4
2018-Jun-16 13:21N 36°45' E 001°05'412.0
2018-Jun-16 13:00N 36°44' E 000°60'612.0
2018-Jun-16 12:29N 36°44' E 000°52'2712.0
2018-Jun-16 10:14N 36°40' E 000°18'311.9
2018-Jun-16 09:59N 36°39' E 000°15'4511.8
2018-Jun-16 06:11N 36°33' W 000°40'212.0
2018-Jun-16 06:00N 36°32' W 000°43'22112.6
2018-Jun-15 12:29N 35°60' W 005°14'613.0
2018-Jun-15 12:00N 35°58' W 005°21'289 9.9
2018-Jun-14 06:56N 38°58' W 010°06'  
2018-Jun-11 17:14N 49°43' W 003°36'710.4
2018-Jun-11 16:31N 49°46' W 003°26'310.3
2018-Jun-11 16:14N 49°48' W 003°22'310.5
2018-Jun-11 15:59N 49°49' W 003°18'610.7
2018-Jun-11 15:27N 49°52' W 003°10'1011.3
2018-Jun-11 14:33N 49°57' W 002°57'4313.6
2018-Jun-11 11:22N 50°10' W 001°53'614.9
2018-Jun-11 10:59N 50°12' W 001°44'4012.7
2018-Jun-11 07:51N 50°24' W 000°44'4110.4
2018-Jun-11 03:55N 50°35' E 000°17'712.1
2018-Jun-11 03:22N 50°37' E 000°27'512.7
2018-Jun-11 03:00N 50°38' E 000°34'612.9
2018-Jun-11 02:31N 50°42' E 000°42'713.0
2018-Jun-11 01:59N 50°46' E 000°51'2911.9
2018-Jun-10 23:34N 51°04' E 001°27'110.7
2018-Jun-10 23:28N 51°05' E 001°28'510.2
2018-Jun-10 23:00N 51°08' E 001°34'5 9.4
2018-Jun-10 22:31N 51°11' E 001°39'5 9.7
2018-Jun-10 22:01N 51°14' E 001°45'510.2
2018-Jun-10 21:30N 51°18' E 001°50'510.8
2018-Jun-10 21:00N 51°23' E 001°54'611.2
2018-Jun-10 20:30N 51°27' E 001°60'912.2
2018-Jun-10 19:45N 51°34' E 002°09'312.8
2018-Jun-10 19:31N 51°37' E 002°12'7812.6
2018-Jun-10 13:16N 52°38' E 003°32'7811.6
2018-Jun-10 06:33N 53°34' E 005°03'111.5
2018-Jun-10 06:29N 53°34' E 005°04'611.3
2018-Jun-10 05:59N 53°36' E 005°13'4810.9
2018-Jun-10 01:37N 53°50' E 006°29'311.8
2018-Jun-10 01:21N 53°51' E 006°34'412.2
2018-Jun-10 01:01N 53°52' E 006°41'612.4
2018-Jun-10 00:30N 53°54' E 006°51'712.5
2018-Jun-09 23:56N 53°56' E 007°03'612.5
2018-Jun-09 23:29N 53°58' E 007°12'712.5
2018-Jun-09 22:57N 53°59' E 007°23'612.7
2018-Jun-09 22:30N 54°01' E 007°33'611.7
2018-Jun-09 22:00N 54°01' E 007°43'612.2
2018-Jun-09 21:30N 54°01' E 007°53'612.2
2018-Jun-09 21:00N 54°01' E 008°03'611.6
2018-Jun-09 20:29N 54°00' E 008°14'511.2
2018-Jun-09 20:00N 53°59' E 008°23'510.6
2018-Jun-09 19:29N 53°58' E 008°32'5 9.6
2018-Jun-09 19:00N 53°57' E 008°39'4 8.8
2018-Jun-09 18:30N 53°53' E 008°43'4 8.1
2018-Jun-09 18:00N 53°50' E 008°48'5 8.9
2018-Jun-09 17:30N 53°51' E 008°56'5 9.8
2018-Jun-09 17:00N 53°52' E 009°04'3 6.5
2018-Jun-09 16:30N 53°54' E 009°09'0 0.0
2018-Jun-09 16:00N 53°54' E 009°09'4 3.9
2018-Jun-09 15:00N 53°57' E 009°13'4 7.6
2018-Jun-09 14:30N 53°60' E 009°17'4 8.3
2018-Jun-09 14:00N 54°04' E 009°19'5 8.2
2018-Jun-09 13:25N 54°08' E 009°20'3 8.4
2018-Jun-09 13:01N 54°10' E 009°25'4 7.9
2018-Jun-09 12:31N 54°12' E 009°32'1 1.9
2018-Jun-09 12:00N 54°12' E 009°33'2 3.5
2018-Jun-09 11:30N 54°13' E 009°35'4 8.0
2018-Jun-09 11:00N 54°17' E 009°38'4 7.1
2018-Jun-09 10:30N 54°19' E 009°43'1 1.4
2018-Jun-09 10:00N 54°20' E 009°43'15 5.9
2018-Jun-09 07:32N 54°22' E 010°08'0 2.2
2018-Jun-09 07:27N 54°22' E 010°08'0 0.0
2018-Jun-09 06:59N 54°22' E 010°08'0 1.0
2018-Jun-09 06:30N 54°22' E 010°09'4 8.8
2018-Jun-09 06:00N 54°26' E 010°13'510.2
2018-Jun-09 05:30N 54°30' E 010°18'510.8
2018-Jun-09 05:00N 54°33' E 010°26'611.4
2018-Jun-09 04:30N 54°34' E 010°35'611.5
2018-Jun-09 04:00N 54°35' E 010°45'611.2
2018-Jun-09 03:30N 54°36' E 010°55'611.7
2018-Jun-09 03:00N 54°36' E 011°05'611.6
2018-Jun-09 02:31N 54°35' E 011°14'611.8
2018-Jun-09 02:00N 54°32' E 011°24'612.1
2018-Jun-09 01:29N 54°30' E 011°34'511.5
2018-Jun-09 01:01N 54°28' E 011°43'611.6
2018-Jun-09 00:30N 54°27' E 011°52'611.5
2018-Jun-09 00:01N 54°27' E 012°02'510.8
2018-Jun-08 23:30N 54°29' E 012°11'611.7
2018-Jun-08 23:00N 54°34' E 012°14'611.5
2018-Jun-08 22:30N 54°39' E 012°20'611.7
2018-Jun-08 22:00N 54°42' E 012°28'611.6
2018-Jun-08 21:30N 54°45' E 012°37'611.8
2018-Jun-08 21:01N 54°48' E 012°46'611.7
2018-Jun-08 20:30N 54°50' E 012°55'611.7
2018-Jun-08 20:00N 54°52' E 013°05'3011.6
2018-Jun-08 17:22N 55°02' E 013°55'511.7
2018-Jun-08 16:58N 55°03' E 014°03'1711.4
2018-Jun-08 15:31N 55°16' E 014°22'311.5
2018-Jun-08 15:18N 55°18' E 014°24'511.8
2018-Jun-08 14:50N 55°22' E 014°31'511.8
2018-Jun-08 14:22N 55°26' E 014°37'411.4
2018-Jun-08 14:00N 55°28' E 014°43'611.5
2018-Jun-08 13:30N 55°31' E 014°52'711.8
2018-Jun-08 12:57N 55°35' E 015°02'711.6
2018-Jun-08 12:19N 55°39' E 015°13'28911.1
2018-Jun-07 10:18N 59°04' E 021°31'1711.3
2018-Jun-07 08:45N 59°16' E 021°55'311.3
2018-Jun-07 08:31N 59°18' E 021°59'1911.3
2018-Jun-07 06:48N 59°31' E 022°28'511.3
2018-Jun-07 06:20N 59°32' E 022°38'411.2
2018-Jun-07 06:01N 59°33' E 022°45'911.2
2018-Jun-07 05:15N 59°35' E 023°01'311.3
2018-Jun-07 05:01N 59°36' E 023°06'  
Track history (hours):
 
Tides and Currents Weather Stations Pressure Air Temp Water Temp Dewpoint Dewpoint Depression Visibility Wind Speed Wind Dir Waves Ship Positions

Sea Discovery

Last reported at 2018-Jun-17 04:50 UTC. Time now 2018-Jun-20 05:25 UTC.
Position N 36°59' E 004°54'.

Length 110 m; draft 8 m.

Type: Cargo ship. MMSI: 209185000.

Date/timePositionNaut miles runAvg speedWind from/ knotsBaromVisibWave heightAir tempDewpointWater temp
2018-Jun-17 04:50N 36°59' E 004°54'10211.7
2018-Jun-16 20:07N 36°58' E 002°46'111.3
2018-Jun-16 19:59N 36°58' E 002°44'511.2
2018-Jun-16 19:30N 36°57' E 002°38'611.0
2018-Jun-16 19:00N 36°56' E 002°31'611.2
2018-Jun-16 18:30N 36°55' E 002°24'611.6
2018-Jun-16 18:00N 36°55' E 002°17'612.0
2018-Jun-16 17:30N 36°53' E 002°09'912.4
2018-Jun-16 16:47N 36°52' E 001°58'2312.9
2018-Jun-16 15:00N 36°48' E 001°30'1512.4
2018-Jun-16 13:47N 36°46' E 001°11'512.4
2018-Jun-16 13:21N 36°45' E 001°05'412.0
2018-Jun-16 13:00N 36°44' E 000°60'612.0
2018-Jun-16 12:29N 36°44' E 000°52'2712.0
2018-Jun-16 10:14N 36°40' E 000°18'311.9
2018-Jun-16 09:59N 36°39' E 000°15'4511.8
2018-Jun-16 06:11N 36°33' W 000°40'212.0
2018-Jun-16 06:00N 36°32' W 000°43'22112.6
2018-Jun-15 12:29N 35°60' W 005°14'613.0
2018-Jun-15 12:00N 35°58' W 005°21'289 9.9
2018-Jun-14 06:56N 38°58' W 010°06'  
2018-Jun-11 17:14N 49°43' W 003°36'710.4
2018-Jun-11 16:31N 49°46' W 003°26'310.3
2018-Jun-11 16:14N 49°48' W 003°22'310.5
2018-Jun-11 15:59N 49°49' W 003°18'610.7
2018-Jun-11 15:27N 49°52' W 003°10'1011.3
2018-Jun-11 14:33N 49°57' W 002°57'4313.6
2018-Jun-11 11:22N 50°10' W 001°53'614.9
2018-Jun-11 10:59N 50°12' W 001°44'4012.7
2018-Jun-11 07:51N 50°24' W 000°44'4110.4
2018-Jun-11 03:55N 50°35' E 000°17'712.1
2018-Jun-11 03:22N 50°37' E 000°27'512.7
2018-Jun-11 03:00N 50°38' E 000°34'612.9
2018-Jun-11 02:31N 50°42' E 000°42'713.0
2018-Jun-11 01:59N 50°46' E 000°51'2911.9
2018-Jun-10 23:34N 51°04' E 001°27'110.7
2018-Jun-10 23:28N 51°05' E 001°28'510.2
2018-Jun-10 23:00N 51°08' E 001°34'5 9.4
2018-Jun-10 22:31N 51°11' E 001°39'5 9.7
2018-Jun-10 22:01N 51°14' E 001°45'510.2
2018-Jun-10 21:30N 51°18' E 001°50'510.8
2018-Jun-10 21:00N 51°23' E 001°54'611.2
2018-Jun-10 20:30N 51°27' E 001°60'912.2
2018-Jun-10 19:45N 51°34' E 002°09'312.8
2018-Jun-10 19:31N 51°37' E 002°12'7812.6
2018-Jun-10 13:16N 52°38' E 003°32'7811.6
2018-Jun-10 06:33N 53°34' E 005°03'111.5
2018-Jun-10 06:29N 53°34' E 005°04'611.3
2018-Jun-10 05:59N 53°36' E 005°13'4810.9
2018-Jun-10 01:37N 53°50' E 006°29'311.8
2018-Jun-10 01:21N 53°51' E 006°34'412.2
2018-Jun-10 01:01N 53°52' E 006°41'612.4
2018-Jun-10 00:30N 53°54' E 006°51'712.5
2018-Jun-09 23:56N 53°56' E 007°03'612.5
2018-Jun-09 23:29N 53°58' E 007°12'712.5
2018-Jun-09 22:57N 53°59' E 007°23'612.7
2018-Jun-09 22:30N 54°01' E 007°33'611.7
2018-Jun-09 22:00N 54°01' E 007°43'612.2
2018-Jun-09 21:30N 54°01' E 007°53'612.2
2018-Jun-09 21:00N 54°01' E 008°03'611.6
2018-Jun-09 20:29N 54°00' E 008°14'511.2
2018-Jun-09 20:00N 53°59' E 008°23'510.6
2018-Jun-09 19:29N 53°58' E 008°32'5 9.6
2018-Jun-09 19:00N 53°57' E 008°39'4 8.8
2018-Jun-09 18:30N 53°53' E 008°43'4 8.1
2018-Jun-09 18:00N 53°50' E 008°48'5 8.9
2018-Jun-09 17:30N 53°51' E 008°56'5 9.8
2018-Jun-09 17:00N 53°52' E 009°04'3 6.5
2018-Jun-09 16:30N 53°54' E 009°09'0 0.0
2018-Jun-09 16:00N 53°54' E 009°09'4 3.9
2018-Jun-09 15:00N 53°57' E 009°13'4 7.6
2018-Jun-09 14:30N 53°60' E 009°17'4 8.3
2018-Jun-09 14:00N 54°04' E 009°19'5 8.2
2018-Jun-09 13:25N 54°08' E 009°20'3 8.4
2018-Jun-09 13:01N 54°10' E 009°25'4 7.9
2018-Jun-09 12:31N 54°12' E 009°32'1 1.9
2018-Jun-09 12:00N 54°12' E 009°33'2 3.5
2018-Jun-09 11:30N 54°13' E 009°35'4 8.0
2018-Jun-09 11:00N 54°17' E 009°38'4 7.1
2018-Jun-09 10:30N 54°19' E 009°43'1 1.4
2018-Jun-09 10:00N 54°20' E 009°43'15 5.9
2018-Jun-09 07:32N 54°22' E 010°08'0 2.2
2018-Jun-09 07:27N 54°22' E 010°08'0 0.0
2018-Jun-09 06:59N 54°22' E 010°08'0 1.0
2018-Jun-09 06:30N 54°22' E 010°09'4 8.8
2018-Jun-09 06:00N 54°26' E 010°13'510.2
2018-Jun-09 05:30N 54°30' E 010°18'510.8
2018-Jun-09 05:00N 54°33' E 010°26'611.4
2018-Jun-09 04:30N 54°34' E 010°35'611.5
2018-Jun-09 04:00N 54°35' E 010°45'611.2
2018-Jun-09 03:30N 54°36' E 010°55'611.7
2018-Jun-09 03:00N 54°36' E 011°05'611.6
2018-Jun-09 02:31N 54°35' E 011°14'611.8
2018-Jun-09 02:00N 54°32' E 011°24'612.1
2018-Jun-09 01:29N 54°30' E 011°34'511.5
2018-Jun-09 01:01N 54°28' E 011°43'611.6
2018-Jun-09 00:30N 54°27' E 011°52'611.5
2018-Jun-09 00:01N 54°27' E 012°02'510.8
2018-Jun-08 23:30N 54°29' E 012°11'611.7
2018-Jun-08 23:00N 54°34' E 012°14'611.5
2018-Jun-08 22:30N 54°39' E 012°20'611.7
2018-Jun-08 22:00N 54°42' E 012°28'611.6
2018-Jun-08 21:30N 54°45' E 012°37'611.8
2018-Jun-08 21:01N 54°48' E 012°46'611.7
2018-Jun-08 20:30N 54°50' E 012°55'611.7
2018-Jun-08 20:00N 54°52' E 013°05'3011.6
2018-Jun-08 17:22N 55°02' E 013°55'511.7
2018-Jun-08 16:58N 55°03' E 014°03'1711.4
2018-Jun-08 15:31N 55°16' E 014°22'311.5
2018-Jun-08 15:18N 55°18' E 014°24'511.8
2018-Jun-08 14:50N 55°22' E 014°31'511.8
2018-Jun-08 14:22N 55°26' E 014°37'411.4
2018-Jun-08 14:00N 55°28' E 014°43'611.5
2018-Jun-08 13:30N 55°31' E 014°52'711.8
2018-Jun-08 12:57N 55°35' E 015°02'711.6
2018-Jun-08 12:19N 55°39' E 015°13'28911.1
2018-Jun-07 10:18N 59°04' E 021°31'1711.3
2018-Jun-07 08:45N 59°16' E 021°55'311.3
2018-Jun-07 08:31N 59°18' E 021°59'1911.3
2018-Jun-07 06:48N 59°31' E 022°28'511.3
2018-Jun-07 06:20N 59°32' E 022°38'411.2
2018-Jun-07 06:01N 59°33' E 022°45'911.2
2018-Jun-07 05:15N 59°35' E 023°01'311.3
2018-Jun-07 05:01N 59°36' E 023°06'  

Dump ship's entire track history